createdAt,value
2018-02-23T00:00:22.186Z,16.77
2018-02-23T00:02:49.689Z,14.85
2018-02-23T00:05:17.135Z,13.30
2018-02-23T00:07:48.391Z,28.30
2018-02-23T00:10:15.864Z,16.87
2018-02-23T00:12:43.317Z,18.30
2018-02-23T00:15:10.933Z,14.73
2018-02-23T00:17:38.599Z,22.50
2018-02-23T00:20:06.120Z,12.77
2018-02-23T00:22:42.341Z,19.35
2018-02-23T00:25:10.021Z,15.98
2018-02-23T00:27:37.490Z,22.77
2018-02-23T00:30:05.648Z,17.05
2018-02-23T00:32:40.295Z,13.65
2018-02-23T00:35:07.964Z,16.00
2018-02-23T00:37:35.538Z,20.45
2018-02-23T00:40:03.177Z,11.52
2018-02-23T00:42:30.732Z,12.75
2018-02-23T00:44:58.368Z,22.95
2018-02-23T00:47:25.891Z,20.35
2018-02-23T00:49:53.522Z,16.27
2018-02-23T00:52:21.053Z,13.70
2018-02-23T00:54:48.517Z,16.10
2018-02-23T00:57:16.101Z,17.23
2018-02-23T00:59:43.644Z,16.90
2018-02-23T01:02:11.294Z,13.77
2018-02-23T01:04:38.822Z,15.55
2018-02-23T01:07:07.113Z,17.70
2018-02-23T01:09:34.717Z,14.65
2018-02-23T01:12:02.372Z,15.60
2018-02-23T01:14:29.902Z,20.52
2018-02-23T01:16:57.534Z,18.50
2018-02-23T01:19:25.070Z,17.42
2018-02-23T01:21:52.946Z,15.70
2018-02-23T01:24:20.395Z,17.55
2018-02-23T01:26:47.875Z,20.17
2018-02-23T01:29:15.334Z,22.27
2018-02-23T01:31:42.828Z,24.95
2018-02-23T01:34:10.283Z,16.87
2018-02-23T01:36:37.740Z,14.38
2018-02-23T01:39:05.214Z,16.62
2018-02-23T01:41:32.670Z,29.10
2018-02-23T01:44:00.151Z,20.30
2018-02-23T01:46:27.612Z,15.98
2018-02-23T01:48:55.067Z,20.85
2018-02-23T01:51:22.538Z,17.17
2018-02-23T01:53:49.992Z,18.92
2018-02-23T01:56:17.442Z,16.77
2018-02-23T01:58:44.893Z,19.58
2018-02-23T02:01:12.444Z,25.52
2018-02-23T02:03:39.923Z,19.65
2018-02-23T02:06:07.391Z,20.80
2018-02-23T02:08:34.955Z,23.27
2018-02-23T02:11:02.414Z,20.92
2018-02-23T02:13:29.893Z,23.23
2018-02-23T02:15:57.358Z,24.17
2018-02-23T02:18:24.850Z,26.02
2018-02-23T02:20:52.326Z,20.10
2018-02-23T02:23:19.783Z,21.67
2018-02-23T02:25:47.251Z,18.62
2018-02-23T02:28:14.743Z,22.92
2018-02-23T02:30:42.234Z,18.15
2018-02-23T02:33:09.689Z,18.33
2018-02-23T02:35:37.139Z,18.52
2018-02-23T02:38:04.618Z,19.00
2018-02-23T02:40:32.113Z,21.15
2018-02-23T02:42:59.583Z,20.45
2018-02-23T02:45:27.065Z,18.37
2018-02-23T02:47:54.507Z,19.62
2018-02-23T02:50:21.964Z,25.23
2018-02-23T02:52:49.447Z,23.08
2018-02-23T02:55:16.901Z,21.87
2018-02-23T02:57:44.677Z,24.67
2018-02-23T03:00:12.232Z,25.58
2018-02-23T03:02:40.217Z,25.00
2018-02-23T03:05:08.293Z,23.02
2018-02-23T03:07:36.332Z,21.80
2018-02-23T03:10:03.926Z,20.17
2018-02-23T03:12:32.049Z,26.25
2018-02-23T03:14:59.616Z,27.35
2018-02-23T03:17:27.546Z,21.85
2018-02-23T03:19:55.116Z,21.15
2018-02-23T03:22:23.140Z,23.42
2018-02-23T03:24:51.176Z,16.20
2018-02-23T03:27:19.241Z,22.37
2018-02-23T03:29:47.254Z,20.05
2018-02-23T03:32:14.802Z,25.17
2018-02-23T03:34:42.479Z,23.65
2018-02-23T03:37:10.205Z,23.83
2018-02-23T03:39:37.751Z,21.62
2018-02-23T03:42:06.316Z,21.48
2018-02-23T03:44:34.287Z,21.55
2018-02-23T03:47:01.729Z,18.00
2018-02-23T03:49:29.286Z,19.40
2018-02-23T03:51:56.871Z,30.10
2018-02-23T03:54:24.355Z,24.23
2018-02-23T03:56:51.873Z,24.75
2018-02-23T03:59:19.598Z,24.12
2018-02-23T04:01:47.096Z,22.35
2018-02-23T04:04:14.570Z,22.42
2018-02-23T04:06:42.066Z,20.60
2018-02-23T04:09:09.529Z,21.62
2018-02-23T04:11:36.980Z,25.42
2018-02-23T04:14:04.461Z,21.95
2018-02-23T04:16:31.924Z,25.92
2018-02-23T04:18:59.523Z,21.58
2018-02-23T04:21:27.437Z,20.37
2018-02-23T04:23:55.639Z,25.67
2018-02-23T04:26:23.606Z,23.15
2018-02-23T04:28:51.741Z,28.90
2018-02-23T04:31:19.538Z,23.67
2018-02-23T04:33:47.843Z,25.85
2018-02-23T04:36:15.978Z,27.05
2018-02-23T04:38:43.498Z,28.67
2018-02-23T04:41:11.394Z,20.70
2018-02-23T04:43:39.821Z,26.65
2018-02-23T04:46:07.922Z,23.85
2018-02-23T04:48:36.010Z,22.92
2018-02-23T04:51:03.809Z,21.52
2018-02-23T04:53:32.033Z,25.02
2018-02-23T04:55:59.978Z,19.83
2018-02-23T04:58:28.490Z,21.90
2018-02-23T05:00:57.393Z,25.15
2018-02-23T05:03:25.911Z,29.73
2018-02-23T05:05:54.659Z,27.20
2018-02-23T05:08:23.859Z,26.23
2018-02-23T05:10:52.148Z,26.50
2018-02-23T05:13:20.055Z,29.58
2018-02-23T05:15:47.535Z,28.50
2018-02-23T05:18:15.548Z,26.55
2018-02-23T05:20:43.345Z,25.10
2018-02-23T05:23:12.910Z,30.15
2018-02-23T05:25:41.339Z,28.50
2018-02-23T05:28:09.359Z,25.08
2018-02-23T05:30:36.847Z,26.92
2018-02-23T05:33:04.814Z,32.88
2018-02-23T05:35:32.445Z,27.15
2018-02-23T05:38:00.544Z,22.15
2018-02-23T05:40:28.315Z,29.87
2018-02-23T05:42:56.022Z,26.52
2018-02-23T05:45:23.704Z,25.62
2018-02-23T05:47:52.409Z,25.25
2018-02-23T05:50:20.513Z,26.92
2018-02-23T05:52:48.910Z,32.40
2018-02-23T05:55:16.689Z,28.85
2018-02-23T05:57:44.465Z,29.35
2018-02-23T06:00:13.278Z,29.30
2018-02-23T06:02:41.366Z,28.62
2018-02-23T06:05:09.477Z,27.75
2018-02-23T06:07:38.225Z,36.10
2018-02-23T06:10:06.227Z,53.58
2018-02-23T06:12:35.818Z,32.47
2018-02-23T06:15:03.477Z,28.67
2018-02-23T06:17:36.740Z,30.15
2018-02-23T06:20:09.407Z,26.37
2018-02-23T06:22:37.215Z,30.48
2018-02-23T06:25:04.865Z,26.80
2018-02-23T06:27:32.915Z,38.75
2018-02-23T06:30:00.902Z,40.50
2018-02-23T06:32:28.713Z,31.60
2018-02-23T06:34:56.451Z,32.70
2018-02-23T06:37:24.439Z,35.25
2018-02-23T06:39:51.966Z,36.70
2018-02-23T06:42:19.478Z,31.23
2018-02-23T06:44:48.214Z,36.28
2018-02-23T06:47:15.882Z,37.05
2018-02-23T06:49:44.015Z,33.17
2018-02-23T06:52:12.138Z,31.70
2018-02-23T06:54:40.120Z,31.92
2018-02-23T06:57:08.340Z,32.15
2018-02-23T06:59:36.322Z,34.05
2018-02-23T07:02:04.905Z,32.60
2018-02-23T07:04:32.907Z,40.05
2018-02-23T07:07:00.641Z,36.55
2018-02-23T07:09:28.449Z,34.08
2018-02-23T07:11:56.542Z,28.25
2018-02-23T07:14:25.414Z,32.38
2018-02-23T07:16:53.498Z,36.40
2018-02-23T07:19:21.879Z,29.75
2018-02-23T07:21:49.949Z,38.55
2018-02-23T07:24:18.217Z,29.10
2018-02-23T07:26:46.896Z,32.65
2018-02-23T07:29:14.624Z,37.92
2018-02-23T07:31:42.512Z,33.55
2018-02-23T07:34:10.655Z,37.85
2018-02-23T07:36:38.856Z,35.63
2018-02-23T07:39:06.798Z,30.60
2018-02-23T07:41:34.459Z,33.15
2018-02-23T07:44:02.238Z,41.60
2018-02-23T07:46:30.772Z,31.52
2018-02-23T07:48:59.801Z,34.55
2018-02-23T07:51:28.110Z,33.38
2018-02-23T07:53:55.583Z,35.53
2018-02-23T07:56:23.062Z,31.40
2018-02-23T07:58:50.537Z,38.75
2018-02-23T08:01:18.024Z,29.45
2018-02-23T08:03:45.487Z,32.40
2018-02-23T08:06:12.972Z,33.08
2018-02-23T08:08:43.332Z,41.58
2018-02-23T08:11:13.055Z,32.65
2018-02-23T08:13:40.514Z,33.70
2018-02-23T08:16:07.963Z,32.00
2018-02-23T08:18:35.443Z,34.00
2018-02-23T08:21:02.955Z,33.22
2018-02-23T08:23:30.406Z,30.80
2018-02-23T08:25:57.983Z,36.65
2018-02-23T08:28:25.440Z,30.83
2018-02-23T08:30:52.927Z,34.97
2018-02-23T08:33:20.414Z,36.60
2018-02-23T08:35:47.859Z,31.77
2018-02-23T08:38:15.312Z,35.20
2018-02-23T08:40:42.773Z,40.08
2018-02-23T08:43:10.231Z,55.53
2018-02-23T08:45:37.689Z,39.47
2018-02-23T08:48:05.154Z,45.28
2018-02-23T08:50:32.624Z,40.12
2018-02-23T08:53:00.117Z,42.03
2018-02-23T08:55:27.569Z,32.42
2018-02-23T08:57:55.024Z,37.72
2018-02-23T09:00:29.011Z,41.95
2018-02-23T09:02:56.465Z,34.08
2018-02-23T09:05:24.441Z,37.90
2018-02-23T09:07:53.077Z,40.08
2018-02-23T09:10:20.525Z,39.85
2018-02-23T09:12:48.056Z,36.65
2018-02-23T09:15:15.534Z,39.95
2018-02-23T09:17:42.997Z,38.03
2018-02-23T09:20:10.475Z,39.70
2018-02-23T09:22:37.927Z,39.38
2018-02-23T09:25:05.400Z,47.17
2018-02-23T09:27:32.875Z,34.10
2018-02-23T09:30:00.394Z,41.28
2018-02-23T09:32:35.552Z,44.42
2018-02-23T09:35:03.027Z,37.80
2018-02-23T09:37:30.490Z,41.63
2018-02-23T09:39:57.967Z,41.78
2018-02-23T09:42:25.417Z,44.67
2018-02-23T09:44:52.918Z,42.70
2018-02-23T09:47:20.377Z,39.35
2018-02-23T09:49:47.858Z,41.72
2018-02-23T09:52:15.334Z,44.40
2018-02-23T09:54:42.769Z,43.50
2018-02-23T09:57:10.231Z,42.67
2018-02-23T09:59:37.690Z,45.03
2018-02-23T10:02:05.152Z,45.85
2018-02-23T10:04:32.630Z,43.72
2018-02-23T10:07:00.112Z,45.78
2018-02-23T10:09:27.575Z,41.25
2018-02-23T10:11:55.080Z,39.90
2018-02-23T10:14:22.539Z,46.08
2018-02-23T10:16:49.990Z,46.88
2018-02-23T10:19:17.447Z,49.78
2018-02-23T10:21:44.906Z,47.62
2018-02-23T10:24:12.381Z,39.30
2018-02-23T10:26:39.838Z,42.85
2018-02-23T10:29:07.372Z,44.60
2018-02-23T10:31:34.857Z,43.78
2018-02-23T10:34:02.313Z,40.80
2018-02-23T10:36:29.768Z,46.17
2018-02-23T10:38:57.266Z,45.50
2018-02-23T10:41:24.789Z,47.25
2018-02-23T10:43:53.507Z,46.17
2018-02-23T10:46:20.965Z,39.75
2018-02-23T10:48:48.421Z,46.00
2018-02-23T10:51:15.888Z,44.58
2018-02-23T10:53:43.379Z,50.58
2018-02-23T10:56:10.881Z,49.15
2018-02-23T10:58:38.334Z,37.25
2018-02-23T11:01:05.804Z,47.13
2018-02-23T11:03:33.299Z,42.78
2018-02-23T11:06:00.770Z,42.10
2018-02-23T11:08:28.283Z,46.58
2018-02-23T11:10:55.763Z,45.80
2018-02-23T11:13:23.270Z,45.83
2018-02-23T11:15:50.732Z,46.15
2018-02-23T11:18:18.207Z,44.30
2018-02-23T11:20:45.676Z,48.50
2018-02-23T11:23:13.505Z,46.83
2018-02-23T11:25:41.026Z,55.03
2018-02-23T11:28:08.513Z,46.20
2018-02-23T11:30:35.981Z,44.92
2018-02-23T11:33:03.496Z,40.05
2018-02-23T11:35:30.963Z,47.53
2018-02-23T11:37:58.442Z,41.20
2018-02-23T11:40:25.914Z,41.37
2018-02-23T11:42:53.440Z,44.90
2018-02-23T11:45:20.914Z,42.92
2018-02-23T11:47:48.370Z,40.85
2018-02-23T11:50:15.888Z,42.10
2018-02-23T11:52:43.985Z,45.20
2018-02-23T11:55:11.570Z,43.03
2018-02-23T11:57:45.041Z,40.47
2018-02-23T12:00:12.549Z,47.05
2018-02-23T12:02:40.018Z,45.10
2018-02-23T12:05:07.476Z,42.62
2018-02-23T12:07:34.940Z,41.55
2018-02-23T12:10:02.402Z,46.63
2018-02-23T12:12:29.905Z,47.30
2018-02-23T12:14:57.383Z,46.97
2018-02-23T12:17:24.843Z,49.97
2018-02-23T12:19:52.316Z,49.17
2018-02-23T12:22:19.765Z,47.78
2018-02-23T12:24:47.223Z,43.42
2018-02-23T12:27:14.683Z,47.92
2018-02-23T12:29:42.156Z,47.30
2018-02-23T12:32:09.647Z,45.85
2018-02-23T12:34:37.148Z,45.35
2018-02-23T12:37:04.623Z,46.60
2018-02-23T12:39:32.083Z,47.08
2018-02-23T12:41:59.563Z,49.50
2018-02-23T12:44:27.040Z,47.97
2018-02-23T12:46:54.522Z,46.25
2018-02-23T12:49:22.029Z,48.22
2018-02-23T12:51:49.552Z,46.72
2018-02-23T12:54:17.187Z,69.10
2018-02-23T12:56:44.728Z,46.93
2018-02-23T12:59:12.219Z,48.08
2018-02-23T13:01:39.678Z,50.00
2018-02-23T13:04:07.148Z,42.22
2018-02-23T13:06:34.664Z,48.38
2018-02-23T13:09:02.156Z,45.50
2018-02-23T13:11:29.621Z,47.13
2018-02-23T13:13:57.094Z,46.13
2018-02-23T13:16:29.367Z,41.85
2018-02-23T13:18:56.828Z,46.45
2018-02-23T13:21:24.289Z,42.80
2018-02-23T13:23:51.755Z,48.80
2018-02-23T13:26:19.231Z,38.30
2018-02-23T13:28:46.696Z,38.67
2018-02-23T13:31:14.724Z,45.00
2018-02-23T13:33:43.299Z,41.72
2018-02-23T13:36:10.798Z,44.25
2018-02-23T13:38:38.310Z,36.25
2018-02-23T13:55:30.049Z,43.58
2018-02-23T13:57:57.653Z,43.08
2018-02-23T14:00:25.651Z,43.80
2018-02-23T14:02:55.213Z,48.95
2018-02-23T14:05:25.525Z,47.53
2018-02-23T14:08:05.982Z,45.72
2018-02-23T14:10:33.754Z,46.85
2018-02-23T14:13:01.328Z,42.60
2018-02-23T14:15:42.234Z,47.13
2018-02-23T14:18:09.937Z,40.97
2018-02-23T14:20:41.392Z,44.63
2018-02-23T14:23:09.541Z,49.22
2018-02-23T14:25:37.014Z,41.20
2018-02-23T14:28:04.484Z,45.38
2018-02-23T14:30:31.934Z,44.85
2018-02-23T14:32:59.395Z,40.90
2018-02-23T14:35:26.884Z,42.17
2018-02-23T14:46:32.971Z,45.65
2018-02-23T14:49:12.255Z,47.17
2018-02-23T14:51:40.030Z,45.92
2018-02-23T14:54:07.524Z,51.08
2018-02-23T14:56:34.991Z,50.63
2018-02-23T14:59:02.443Z,50.90
2018-02-23T15:01:30.023Z,47.55
2018-02-23T15:03:57.516Z,42.35
2018-02-23T15:06:25.078Z,47.50
2018-02-23T15:08:52.559Z,49.88
2018-02-23T15:11:20.014Z,46.20
2018-02-23T15:13:47.475Z,44.58
2018-02-23T15:16:15.461Z,42.05
2018-02-23T15:18:44.037Z,36.97
2018-02-23T15:21:11.499Z,43.17
2018-02-23T15:23:38.949Z,45.63
2018-02-23T15:26:06.403Z,44.25
2018-02-23T15:28:33.907Z,43.70
2018-02-23T15:31:13.111Z,47.35
2018-02-23T15:33:40.578Z,47.88
2018-02-23T15:36:08.021Z,40.78
2018-02-23T15:38:35.976Z,47.47
2018-02-23T15:41:03.786Z,46.80
2018-02-23T15:43:31.255Z,47.40
2018-02-23T15:45:58.714Z,50.20
2018-02-23T15:51:33.852Z,48.28
2018-02-23T15:54:01.299Z,41.42
2018-02-23T15:56:28.770Z,51.58
2018-02-23T15:58:56.239Z,41.08
2018-02-23T16:01:23.854Z,40.88
2018-02-23T16:03:51.307Z,40.38
2018-02-23T16:06:18.759Z,44.60
2018-02-23T16:08:46.236Z,46.30
2018-02-23T16:11:13.693Z,68.30
2018-02-23T16:13:41.146Z,60.70
2018-02-23T16:16:08.601Z,45.40
2018-02-23T16:18:36.068Z,44.70
2018-02-23T16:21:03.650Z,41.28
2018-02-23T16:23:31.096Z,39.15
2018-02-23T16:25:58.547Z,42.03
2018-02-23T16:28:26.018Z,40.00
2018-02-23T16:30:53.466Z,46.67
2018-02-23T16:33:20.918Z,45.12
2018-02-23T16:35:48.358Z,42.05
2018-02-23T16:38:15.849Z,45.80
2018-02-23T16:40:43.295Z,41.35
2018-02-23T16:43:10.754Z,43.65
2018-02-23T16:45:38.224Z,43.10
2018-02-23T16:48:05.683Z,39.38
2018-02-23T16:50:33.154Z,45.85
2018-02-23T16:53:01.194Z,47.17
2018-02-23T16:55:28.635Z,38.95
2018-02-23T16:57:56.208Z,43.35
2018-02-23T17:00:23.673Z,39.72
2018-02-23T17:02:51.175Z,46.63
2018-02-23T17:05:18.740Z,77.05
2018-02-23T17:07:46.194Z,43.28
2018-02-23T17:10:13.650Z,45.95
2018-02-23T17:12:41.141Z,43.78
2018-02-23T17:15:08.900Z,41.80
2018-02-23T17:17:36.680Z,39.70
2018-02-23T17:20:08.079Z,42.75
2018-02-23T17:22:41.746Z,43.80
2018-02-23T17:25:09.333Z,47.60
2018-02-23T17:27:36.858Z,46.83
2018-02-23T17:30:04.749Z,43.58
2018-02-23T17:32:32.225Z,40.50
2018-02-23T17:34:59.677Z,43.40
2018-02-23T17:37:27.162Z,40.90
2018-02-23T17:39:54.634Z,43.87
2018-02-23T17:42:22.091Z,46.80
2018-02-23T17:44:49.564Z,49.25
2018-02-23T17:47:17.063Z,56.20
2018-02-23T17:49:44.527Z,47.25
2018-02-23T17:52:11.988Z,48.25
2018-02-23T17:54:39.442Z,52.40
2018-02-23T17:57:06.878Z,48.65
2018-02-23T17:59:34.362Z,43.45
2018-02-23T18:02:01.808Z,52.62
2018-02-23T18:04:29.259Z,54.88
2018-02-23T18:06:57.209Z,47.10
2018-02-23T18:09:24.674Z,52.42
2018-02-23T18:11:52.143Z,54.40
2018-02-23T18:14:19.597Z,52.47
2018-02-23T18:16:47.058Z,47.47
2018-02-23T18:19:14.555Z,43.10
2018-02-23T18:21:42.017Z,43.30
2018-02-23T18:24:09.485Z,60.35
2018-02-23T18:26:36.954Z,56.67
2018-02-23T18:29:04.425Z,44.92
2018-02-23T18:31:31.867Z,44.65
2018-02-23T18:33:59.313Z,62.80
2018-02-23T18:36:26.774Z,41.83
2018-02-23T18:38:54.277Z,48.50
2018-02-23T18:41:22.118Z,43.90
2018-02-23T18:43:49.646Z,44.65
2018-02-23T18:46:17.107Z,47.80
2018-02-23T18:48:44.619Z,58.05
2018-02-23T18:51:12.130Z,46.83
2018-02-23T18:53:39.622Z,44.70
2018-02-23T18:56:07.107Z,55.80
2018-02-23T18:58:34.611Z,43.05
2018-02-23T19:01:02.162Z,53.72
2018-02-23T19:03:29.614Z,41.42
2018-02-23T19:11:42.886Z,38.92
2018-02-23T19:14:10.372Z,49.47
2018-02-23T19:16:37.974Z,42.62
2018-02-23T19:19:05.510Z,48.80
2018-02-23T19:21:33.108Z,39.63
2018-02-23T19:24:00.758Z,40.65
2018-02-23T19:26:28.241Z,44.38
2018-02-23T19:28:55.685Z,45.95
2018-02-23T19:31:23.139Z,52.70
2018-02-23T19:33:50.596Z,54.65
2018-02-23T19:36:18.276Z,52.05
2018-02-23T19:38:45.841Z,43.00
2018-02-23T19:41:13.383Z,40.20
2018-02-23T19:43:40.902Z,52.15
2018-02-23T19:46:08.365Z,50.03
2018-02-23T19:48:35.947Z,43.05
2018-02-23T19:51:03.385Z,45.97
2018-02-23T19:53:30.903Z,47.15
2018-02-23T19:55:58.385Z,54.22
2018-02-23T19:58:25.833Z,45.88
2018-02-23T20:00:53.305Z,53.78
2018-02-23T20:03:20.799Z,44.00
2018-02-23T20:05:48.242Z,58.60
2018-02-23T20:08:15.759Z,50.58
2018-02-23T20:10:43.174Z,57.60
2018-02-23T20:13:10.626Z,56.25
2018-02-23T20:15:38.106Z,48.85
2018-02-23T20:18:05.568Z,55.15
2018-02-23T20:20:33.207Z,48.33
2018-02-23T20:23:00.671Z,51.42
2018-02-23T20:25:28.135Z,50.33
2018-02-23T20:27:55.595Z,56.55
2018-02-23T20:30:23.049Z,51.13
2018-02-23T20:32:50.502Z,45.70
2018-02-23T20:35:18.031Z,52.17
2018-02-23T20:37:45.489Z,51.45
2018-02-23T20:40:12.929Z,48.53
2018-02-23T20:42:40.386Z,57.50
2018-02-23T20:45:07.825Z,48.20
2018-02-23T20:47:35.311Z,46.83
2018-02-23T20:50:02.770Z,49.63
2018-02-23T20:52:30.220Z,44.08
2018-02-23T20:54:57.674Z,57.78
2018-02-23T20:57:25.135Z,51.78
2018-02-23T20:59:52.616Z,50.63
2018-02-23T21:02:20.067Z,57.38
2018-02-23T21:04:47.507Z,57.62
2018-02-23T21:07:15.067Z,47.42
2018-02-23T21:09:42.576Z,50.50
2018-02-23T21:12:10.116Z,54.78
2018-02-23T21:14:37.559Z,50.03
2018-02-23T21:17:05.004Z,53.35
2018-02-23T21:19:32.490Z,60.60
2018-02-23T21:21:59.936Z,52.30
2018-02-23T21:24:27.375Z,48.58
2018-02-23T21:26:54.849Z,62.00
2018-02-23T21:29:22.293Z,51.08
2018-02-23T21:31:49.902Z,54.85
2018-02-23T21:34:17.383Z,49.92
2018-02-23T21:36:44.867Z,80.60
2018-02-23T21:39:12.326Z,48.80
2018-02-23T21:41:51.664Z,65.75
2018-02-23T21:44:19.119Z,50.30
2018-02-23T21:46:46.670Z,56.25
2018-02-23T21:49:14.224Z,59.72
2018-02-23T21:51:41.717Z,53.75
2018-02-23T21:54:09.177Z,52.83
2018-02-23T21:56:36.652Z,60.17
2018-02-23T21:59:04.524Z,51.15
2018-02-23T22:01:31.974Z,59.55
2018-02-23T22:03:59.567Z,53.05
2018-02-23T22:06:27.035Z,51.80
2018-02-23T22:08:54.523Z,55.72
2018-02-23T22:11:21.986Z,58.38
2018-02-23T22:13:49.449Z,57.95
2018-02-23T22:16:16.910Z,56.05
2018-02-23T22:18:44.364Z,50.50
2018-02-23T22:21:11.835Z,55.33
2018-02-23T22:23:39.423Z,54.38
2018-02-23T22:26:06.882Z,52.35
2018-02-23T22:28:34.371Z,56.70
2018-02-23T22:31:01.859Z,57.35
2018-02-23T22:33:29.336Z,57.47
2018-02-23T22:35:56.832Z,56.17
2018-02-23T22:38:24.404Z,57.90
2018-02-23T22:40:51.898Z,54.97
2018-02-23T22:43:19.358Z,56.92
2018-02-23T22:45:46.802Z,58.38
2018-02-23T22:48:14.415Z,53.55
2018-02-23T22:50:42.766Z,55.67
2018-02-23T22:53:12.489Z,55.22
2018-02-23T22:55:41.574Z,53.92
2018-02-23T22:58:10.126Z,59.78
2018-02-23T23:00:43.154Z,56.03
2018-02-23T23:03:19.178Z,60.88
2018-02-23T23:05:51.628Z,54.45
2018-02-23T23:08:20.358Z,56.03
2018-02-23T23:10:48.948Z,57.33
2018-02-23T23:13:19.296Z,57.03
2018-02-23T23:15:46.900Z,56.65
2018-02-23T23:18:16.830Z,56.10
2018-02-23T23:20:45.317Z,62.28
2018-02-23T23:23:12.766Z,53.60
2018-02-23T23:25:40.313Z,57.97
2018-02-23T23:28:08.012Z,52.53
2018-02-23T23:30:35.550Z,49.05
2018-02-23T23:33:03.076Z,49.88
2018-02-23T23:35:31.598Z,54.13
2018-02-23T23:37:59.161Z,46.63
2018-02-23T23:40:26.895Z,58.08
2018-02-23T23:42:54.354Z,54.88
2018-02-23T23:45:21.842Z,54.88
2018-02-23T23:47:49.323Z,52.78
2018-02-23T23:50:16.763Z,51.08
2018-02-23T23:52:44.226Z,57.97
2018-02-23T23:55:11.735Z,52.47
2018-02-23T23:57:40.547Z,52.65
